Time;durP1;ratioP1;P1;durP2;ratioP2;P2;SDS_P1;SDS_P2;PMS_P1;PMS_P2;Temp;Humidity;BMP_temperature;BMP_pressure;BME280_temperature;BME280_humidity;BME280_pressure;Samples;Min_cycle;Max_cycle;Signal;HPM_P1;HPM_P2
2023/02/14 00:01:55;;;;;;;4.60;3.70;;;;;;;4.01;77.59;99710.61;107329;1258;72956;-40
2023/02/14 00:04:24;;;;;;;6.10;3.30;;;;;;;3.95;77.79;99710.53;107301;1256;59631;-40
2023/02/14 00:06:53;;;;;;;4.60;3.60;;;;;;;3.89;78.16;99706.97;107392;1257;59497;-40
2023/02/14 00:09:21;;;;;;;5.70;3.30;;;;;;;3.90;78.18;99700.63;107352;1257;74182;-40
2023/02/14 00:11:53;;;;;;;6.10;3.50;;;;;;;3.95;78.30;99704.13;107271;1256;69946;-40
2023/02/14 00:17:23;;;;;;;5.10;3.30;;;;;;;3.91;78.57;99693.65;106986;1256;60583;-40
2023/02/14 00:19:52;;;;;;;5.30;3.70;;;;;;;3.86;78.53;99700.77;107302;1256;61241;-40
2023/02/14 00:22:20;;;;;;;5.30;3.40;;;;;;;3.89;78.50;99697.21;107329;1257;74238;-40
2023/02/14 00:24:49;;;;;;;7.00;3.80;;;;;;;3.90;78.68;99692.42;107317;1256;69765;-40
2023/02/14 00:27:18;;;;;;;5.80;3.50;;;;;;;3.85;78.97;99691.14;107326;1257;73912;-40
2023/02/14 00:29:46;;;;;;;6.20;3.90;;;;;;;3.82;79.20;99691.98;107368;1256;62105;-40
2023/02/14 00:32:15;;;;;;;6.00;3.50;;;;;;;3.84;79.23;99694.81;107404;1256;61579;-40
2023/02/14 00:34:45;;;;;;;4.80;3.20;;;;;;;3.88;79.18;99693.48;107314;1257;73895;-40
2023/02/14 00:37:14;;;;;;;5.40;3.70;;;;;;;3.87;79.25;99701.11;107377;1256;69786;-40
2023/02/14 00:39:43;;;;;;;5.70;3.60;;;;;;;3.84;79.13;99695.09;107403;1257;73755;-40
2023/02/14 00:42:12;;;;;;;4.70;3.50;;;;;;;3.79;79.27;99694.57;107358;1256;61419;-40
2023/02/14 00:44:41;;;;;;;3.90;3.20;;;;;;;3.80;79.18;99682.42;107342;1257;61298;-40
2023/02/14 00:47:09;;;;;;;7.10;3.70;;;;;;;3.84;79.26;99678.89;107352;1256;74981;-41
2023/02/14 00:49:38;;;;;;;5.00;3.90;;;;;;;3.82;79.45;99675.94;107356;1257;69935;-41
2023/02/14 00:52:06;;;;;;;6.90;4.00;;;;;;;3.79;79.40;99670.71;107327;1260;74121;-41
2023/02/14 00:54:35;;;;;;;7.90;4.20;;;;;;;3.74;79.63;99656.45;107302;1256;62275;-41
2023/02/14 00:57:04;;;;;;;6.10;4.00;;;;;;;3.76;79.57;99656.13;107361;1257;61540;-41
2023/02/14 00:59:32;;;;;;;9.30;4.70;;;;;;;3.80;79.63;99656.63;107321;1256;74061;-41
2023/02/14 01:02:03;;;;;;;5.60;3.70;;;;;;;3.78;79.58;99654.14;107344;1256;69581;-41
2023/02/14 01:04:32;;;;;;;5.20;3.90;;;;;;;3.72;79.75;99660.11;107341;1257;72666;-41
2023/02/14 01:07:02;;;;;;;5.40;3.90;;;;;;;3.72;79.90;99662.57;107399;1257;61520;-41
2023/02/14 01:09:30;;;;;;;7.20;3.90;;;;;;;3.76;79.77;99659.31;107292;1256;61564;-41
2023/02/14 01:12:02;;;;;;;6.30;3.90;;;;;;;3.75;79.71;99656.91;107280;1256;74716;-41
2023/02/14 01:14:31;;;;;;;5.80;3.20;;;;;;;3.67;79.63;99647.14;107249;1256;70015;-41
2023/02/14 01:17:01;;;;;;;7.10;4.20;;;;;;;3.73;79.59;99648.06;107359;1257;73905;-41
2023/02/14 01:19:30;;;;;;;5.40;4.30;;;;;;;3.76;79.41;99644.39;107396;1257;60556;-41
2023/02/14 01:22:00;;;;;;;;;;;;;;;3.78;79.41;99648.85;107320;1256;62232;-41
2023/02/14 01:24:29;;;;;;;5.90;4.20;;;;;;;3.72;79.53;99649.22;107145;1257;73733;-41
2023/02/14 01:27:00;;;;;;;7.90;4.30;;;;;;;3.66;79.62;99642.88;107292;1258;69682;-41
2023/02/14 01:29:29;;;;;;;7.90;3.70;;;;;;;3.69;79.48;99648.54;107308;1257;74313;-41
2023/02/14 01:31:57;;;;;;;5.30;3.70;;;;;;;3.73;79.33;99648.55;107265;1257;61276;-41
2023/02/14 01:34:46;;;;;;;7.90;4.50;;;;;;;3.74;79.20;99646.05;107276;1259;61610;-41
2023/02/14 01:37:15;;;;;;;8.50;4.30;;;;;;;3.70;79.18;99638.96;107343;1256;75101;-41
2023/02/14 01:39:43;;;;;;;5.90;3.70;;;;;;;3.68;79.20;99637.92;107349;1257;69765;-41
2023/02/14 01:42:14;;;;;;;5.20;3.90;;;;;;;3.70;79.13;99638.43;107338;1257;73522;-41
2023/02/14 01:44:49;;;;;;;5.60;4.10;;;;;;;3.71;79.08;99625.27;107411;1257;60660;-41
2023/02/14 01:47:17;;;;;;;6.20;4.10;;;;;;;3.71;79.06;99623.83;107273;1257;61920;-41
2023/02/14 01:49:48;;;;;;;;;;;;;;;3.70;79.03;99616.03;107200;1257;75812;-41
2023/02/14 01:52:23;;;;;;;6.20;3.90;;;;;;;3.69;78.98;99602.10;107376;1257;69190;-41
2023/02/14 01:54:55;;;;;;;6.60;4.50;;;;;;;3.71;78.80;99608.52;107356;1257;73832;-41
2023/02/14 01:57:23;;;;;;;6.40;4.20;;;;;;;3.72;78.83;99597.15;107315;1257;61301;-41
2023/02/14 01:59:54;;;;;;;5.90;4.00;;;;;;;3.69;78.79;99594.54;107060;1256;61229;-41
2023/02/14 02:02:23;;;;;;;5.10;3.70;;;;;;;3.66;78.66;99595.95;107365;1256;74658;-41
2023/02/14 02:04:53;;;;;;;7.00;4.30;;;;;;;3.67;78.58;99590.08;107387;1257;69711;-41
2023/02/14 02:07:23;;;;;;;7.60;4.00;;;;;;;3.72;78.42;99583.64;107361;1257;73682;-41
2023/02/14 02:09:57;;;;;;;5.80;4.20;;;;;;;3.70;78.13;99572.63;107301;1256;60919;-41
2023/02/14 02:12:25;;;;;;;6.20;4.20;;;;;;;3.68;78.07;99570.98;107291;1257;61295;-41
2023/02/14 02:14:59;;;;;;;6.90;3.90;;;;;;;3.67;78.08;99564.63;107381;1257;74701;-41
2023/02/14 02:18:10;;;;;;;7.40;3.80;;;;;;;3.70;77.64;99575.80;107323;1260;69870;-41
2023/02/14 02:21:01;;;;;;;8.00;3.80;;;;;;;3.73;77.46;99589.23;107308;1257;73927;-41
2023/02/14 02:23:33;;;;;;;4.90;3.30;;;;;;;3.67;77.46;99595.36;107329;1257;60873;-41
2023/02/14 02:26:17;;;;;;;6.70;3.70;;;;;;;3.61;77.52;99599.73;107343;1257;60311;-41
2023/02/14 02:28:49;;;;;;;5.60;3.70;;;;;;;3.62;77.19;99592.95;107347;1259;75098;-41
2023/02/14 02:31:45;;;;;;;5.90;3.10;;;;;;;3.66;77.03;99591.88;107318;1257;69963;-41
2023/02/14 02:34:29;;;;;;;5.80;3.50;;;;;;;3.66;76.97;99581.54;107231;1257;72843;-41
2023/02/14 02:37:09;;;;;;;5.20;3.30;;;;;;;3.63;76.92;99575.87;107234;1256;60843;-41
2023/02/14 02:40:05;;;;;;;4.50;2.80;;;;;;;3.61;76.79;99571.77;107151;1256;61547;-41
2023/02/14 02:43:12;;;;;;;5.80;3.20;;;;;;;3.65;76.69;99581.61;107176;1256;75180;-41
2023/02/14 02:48:58;;;;;;;5.10;3.30;;;;;;;3.65;76.57;99576.79;107316;1256;73853;-41
2023/02/14 02:54:36;;;;;;;5.20;3.00;;;;;;;3.60;76.54;99581.50;107186;1257;59568;-41
2023/02/14 02:57:09;;;;;;;6.10;3.00;;;;;;;3.65;76.42;99584.20;107258;1257;73310;-40
2023/02/14 02:59:39;;;;;;;4.40;3.10;;;;;;;3.69;76.24;99582.69;107277;1260;68719;-41
2023/02/14 03:02:07;;;;;;;4.10;3.00;;;;;;;3.70;76.15;99587.48;107232;1257;73745;-41
2023/02/14 03:04:53;;;;;;;5.20;3.20;;;;;;;3.67;76.13;99594.06;107400;1260;60476;-40
2023/02/14 03:07:35;;;;;;;3.80;2.50;;;;;;;3.62;76.18;99598.42;107389;1256;60374;-40
2023/02/14 03:10:15;;;;;;;5.00;2.90;;;;;;;3.63;76.16;99611.86;107339;1257;75023;-41
2023/02/14 03:13:08;;;;;;;5.00;2.80;;;;;;;3.65;76.32;99610.83;107374;1257;69944;-39
2023/02/14 03:15:52;;;;;;;5.40;2.80;;;;;;;3.63;76.10;99605.73;107288;1257;73599;-40
2023/02/14 03:18:33;;;;;;;4.40;3.10;;;;;;;3.59;76.36;99613.50;107336;1257;60740;-40
2023/02/14 03:21:13;;;;;;;4.40;2.90;;;;;;;3.58;76.54;99617.06;107236;1257;61839;-40
2023/02/14 03:24:04;;;;;;;5.10;2.90;;;;;;;3.62;76.25;99619.54;107311;1257;75030;-39
2023/02/14 03:26:42;;;;;;;5.30;2.80;;;;;;;3.67;76.20;99605.02;107326;1257;69781;-40
2023/02/14 03:29:12;;;;;;;5.90;2.60;;;;;;;3.66;76.36;99615.05;107370;1256;72666;-40
2023/02/14 03:32:02;;;;;;;9.60;3.50;;;;;;;3.65;76.42;99615.08;107386;1257;60498;-40
2023/02/14 03:35:06;;;;;;;4.80;2.90;;;;;;;3.64;76.38;99622.27;107416;1257;60328;-40
2023/02/14 03:37:50;;;;;;;5.30;2.90;;;;;;;3.62;76.40;99623.77;107331;1257;74335;-40
2023/02/14 03:40:35;;;;;;;7.90;3.00;;;;;;;3.69;76.84;99633.36;107361;1257;69940;-40
2023/02/14 03:43:16;;;;;;;4.90;2.90;;;;;;;3.60;77.20;99628.71;107246;1257;73647;-40
2023/02/14 03:45:51;;;;;;;6.20;3.10;;;;;;;3.61;77.86;99639.52;107233;1257;60479;-40
2023/02/14 03:48:20;;;;;;;4.40;2.70;;;;;;;3.56;78.31;99640.39;107248;1257;60437;-40
2023/02/14 03:50:49;;;;;;;3.90;2.60;;;;;;;3.58;78.60;99647.11;107338;1257;74728;-40
2023/02/14 03:53:20;;;;;;;7.20;3.00;;;;;;;3.59;79.01;99648.33;107078;1257;69628;-40
2023/02/14 03:56:07;;;;;;;4.80;2.70;;;;;;;3.56;79.34;99645.75;107299;1260;73585;-40
2023/02/14 03:58:38;;;;;;;6.50;3.20;;;;;;;3.51;79.98;99644.05;107245;1257;60455;-40
2023/02/14 04:01:15;;;;;;;3.50;2.30;;;;;;;3.47;80.32;99646.19;107308;1256;61266;-40
2023/02/14 04:03:43;;;;;;;4.90;2.50;;;;;;;3.52;80.38;99645.05;107248;1256;73823;-40
2023/02/14 04:06:12;;;;;;;4.00;2.40;;;;;;;3.54;80.34;99648.16;107233;1257;69850;-40
2023/02/14 04:08:41;;;;;;;3.10;2.20;;;;;;;3.50;80.41;99653.71;107301;1256;73802;-40
2023/02/14 04:11:09;;;;;;;5.20;2.50;;;;;;;3.45;80.65;99652.08;107316;1256;60740;-40
2023/02/14 04:13:39;;;;;;;5.90;2.40;;;;;;;3.40;80.88;99654.60;107372;1256;61206;-40
2023/02/14 04:16:07;;;;;;;5.30;2.60;;;;;;;3.41;80.95;99652.81;107333;1256;75031;-40
2023/02/14 04:21:24;;;;;;;5.20;2.70;;;;;;;3.46;80.99;99651.36;107324;1257;73113;-40
2023/02/14 04:23:53;;;;;;;4.20;2.50;;;;;;;3.45;81.31;99650.51;107336;1260;60437;-40
2023/02/14 04:26:21;;;;;;;5.30;2.20;;;;;;;3.45;81.16;99643.44;107351;1257;61516;-40
2023/02/14 04:28:50;;;;;;;3.70;2.20;;;;;;;3.48;80.78;99644.02;107366;1257;75129;-40
2023/02/14 04:31:19;;;;;;;3.40;2.10;;;;;;;3.54;80.81;99644.15;107371;1260;69851;-40
2023/02/14 04:33:50;;;;;;;4.10;2.00;;;;;;;3.56;80.75;99650.70;107314;1257;73896;-40
2023/02/14 04:36:18;;;;;;;4.80;2.30;;;;;;;3.55;80.73;99648.58;107344;1257;60760;-40
2023/02/14 04:38:47;;;;;;;4.50;2.30;;;;;;;3.51;80.67;99646.04;107339;1257;61452;-40
2023/02/14 04:41:15;;;;;;;3.40;2.00;;;;;;;3.45;80.72;99651.27;107321;1257;75023;-40
2023/02/14 04:43:44;;;;;;;3.70;2.00;;;;;;;3.45;80.69;99655.05;107350;1257;69612;-40
2023/02/14 04:46:13;;;;;;;6.80;2.50;;;;;;;3.46;80.62;99660.54;107349;1257;73562;-40
2023/02/14 04:48:41;;;;;;;6.80;2.10;;;;;;;3.41;80.77;99663.91;107326;1257;60304;-40
2023/02/14 04:51:09;;;;;;;3.00;2.00;;;;;;;3.37;81.00;99670.55;107340;1257;61367;-40
2023/02/14 04:53:39;;;;;;;3.20;2.10;;;;;;;3.33;81.06;99677.04;107346;1260;75034;-40
2023/02/14 04:56:12;;;;;;;5.30;2.20;;;;;;;3.30;80.93;99670.52;106650;1260;1002979;-40
2023/02/14 04:58:41;;;;;;;4.00;2.10;;;;;;;3.41;80.74;99683.27;107370;1256;73530;-40
2023/02/14 05:01:09;;;;;;;5.60;2.30;;;;;;;3.41;80.92;99682.14;107362;1257;60614;-40
2023/02/14 05:03:38;;;;;;;5.90;2.40;;;;;;;3.41;80.89;99689.23;107270;1261;61202;-40
2023/02/14 05:06:07;;;;;;;4.60;2.30;;;;;;;3.40;80.72;99693.25;107313;1260;74765;-40
2023/02/14 05:08:35;;;;;;;7.50;3.00;;;;;;;3.43;80.37;99701.18;107256;1260;70276;-40
2023/02/14 05:11:04;;;;;;;4.40;2.30;;;;;;;3.45;80.16;99701.08;107245;1258;73856;-40
2023/02/14 05:13:32;;;;;;;3.50;2.10;;;;;;;3.46;80.32;99703.95;107314;1256;60790;-40
2023/02/14 05:16:01;;;;;;;6.40;2.10;;;;;;;3.45;80.20;99703.91;107300;1257;61423;-40
2023/02/14 05:18:30;;;;;;;4.40;2.20;;;;;;;3.42;80.13;99705.92;107355;1257;75078;-40
2023/02/14 05:20:58;;;;;;;4.10;1.70;;;;;;;3.43;79.92;99710.77;107371;1257;69879;-40
2023/02/14 05:23:28;;;;;;;2.60;1.40;;;;;;;3.41;79.94;99709.75;107286;1258;73852;-40
2023/02/14 05:25:56;;;;;;;6.20;2.00;;;;;;;3.37;80.13;99704.21;107323;1257;61509;-40
2023/02/14 05:28:24;;;;;;;4.40;2.10;;;;;;;3.35;80.28;99706.77;107419;1256;60446;-40
2023/02/14 05:30:53;;;;;;;4.70;1.80;;;;;;;3.30;80.36;99707.73;107326;1257;75096;-40
2023/02/14 05:33:23;;;;;;;2.20;1.20;;;;;;;3.32;80.48;99714.88;107332;1257;70086;-40
2023/02/14 05:35:51;;;;;;;2.80;1.70;;;;;;;3.40;80.34;99720.34;107238;1256;72852;-40
2023/02/14 05:38:23;;;;;;;3.80;2.30;;;;;;;3.42;80.16;99721.45;107320;1257;61349;-40
2023/02/14 05:40:51;;;;;;;5.40;2.20;;;;;;;3.41;80.07;99728.02;107313;1257;61346;-40
2023/02/14 05:43:20;;;;;;;3.40;1.80;;;;;;;3.41;79.81;99726.40;107317;1260;74910;-40
2023/02/14 05:45:50;;;;;;;5.40;1.80;;;;;;;3.43;79.65;99723.54;107314;1257;69702;-40
2023/02/14 05:48:18;;;;;;;4.00;1.70;;;;;;;3.48;79.26;99717.62;107293;1257;72917;-40
2023/02/14 05:50:47;;;;;;;2.90;1.70;;;;;;;3.49;78.77;99714.64;107316;1257;60393;-40
2023/02/14 05:53:15;;;;;;;4.80;1.80;;;;;;;3.48;78.71;99718.01;107301;1258;61538;-40
2023/02/14 05:55:44;;;;;;;5.50;1.90;;;;;;;3.45;78.65;99714.35;107328;1260;75037;-40
2023/02/14 05:58:12;;;;;;;4.10;1.50;;;;;;;3.41;78.51;99707.39;107393;1257;69622;-40
2023/02/14 06:00:41;;;;;;;3.80;1.60;;;;;;;3.43;78.40;99715.00;107345;1257;73766;-40
2023/02/14 06:03:10;;;;;;;3.60;1.80;;;;;;;3.47;78.08;99714.80;107360;1256;60625;-40
2023/02/14 06:05:39;;;;;;;4.00;1.60;;;;;;;3.47;77.81;99714.85;107281;1257;61373;-41
2023/02/14 06:08:08;;;;;;;4.20;1.90;;;;;;;3.45;77.95;99713.02;107356;1257;74861;-40
2023/02/14 06:10:37;;;;;;;5.80;1.90;;;;;;;3.42;77.87;99721.67;107294;1256;70265;-40
2023/02/14 06:13:10;;;;;;;5.50;2.40;;;;;;;3.42;77.69;99719.21;107282;1260;73859;-40
2023/02/14 06:15:40;;;;;;;4.00;2.10;;;;;;;3.47;77.50;99720.58;107342;1257;60322;-40
2023/02/14 06:18:09;;;;;;;5.40;2.20;;;;;;;3.49;77.48;99728.17;107332;1257;61433;-40
2023/02/14 06:20:37;;;;;;;4.50;2.40;;;;;;;3.47;77.19;99729.98;107332;1257;74120;-40
2023/02/14 06:23:05;;;;;;;3.10;2.00;;;;;;;3.46;77.39;99732.30;107252;1257;69927;-40
2023/02/14 06:25:34;;;;;;;2.90;1.70;;;;;;;3.43;77.25;99736.91;107257;1256;73985;-40
2023/02/14 06:28:02;;;;;;;5.20;2.20;;;;;;;3.49;77.48;99733.90;107230;1257;60436;-40
2023/02/14 06:30:32;;;;;;;5.60;1.80;;;;;;;3.55;77.11;99733.93;107277;1257;61783;-40
2023/02/14 06:33:01;;;;;;;5.00;2.30;;;;;;;3.59;77.15;99742.69;107358;1257;74848;-40
2023/02/14 06:35:34;;;;;;;4.20;2.00;;;;;;;3.61;76.80;99740.97;107280;1257;69917;-40
2023/02/14 06:38:02;;;;;;;3.40;1.60;;;;;;;3.61;76.79;99738.44;107255;1257;74126;-40
2023/02/14 06:40:31;;;;;;;3.50;1.70;;;;;;;3.66;76.53;99738.27;107303;1256;62728;-40
2023/02/14 06:42:59;;;;;;;4.10;1.80;;;;;;;3.72;76.26;99743.00;107340;1258;61347;-40
2023/02/14 06:45:28;;;;;;;4.90;2.00;;;;;;;3.69;76.24;99738.09;107303;1257;75326;-40
2023/02/14 06:47:58;;;;;;;3.80;2.20;;;;;;;3.80;76.07;99746.13;107246;1257;68747;-40
2023/02/14 06:50:27;;;;;;;;;;;;;;;3.80;75.67;99753.32;107320;1256;72126;-40
2023/02/14 06:52:55;;;;;;;5.80;2.10;;;;;;;3.74;75.44;99752.45;107308;1256;62372;-40
2023/02/14 06:55:24;;;;;;;3.20;1.70;;;;;;;3.75;75.27;99752.55;107398;1258;61456;-41
2023/02/14 06:57:54;;;;;;;4.30;1.60;;;;;;;3.80;75.31;99753.17;107390;1257;75117;-41
2023/02/14 07:00:23;;;;;;;5.50;1.80;;;;;;;3.86;75.25;99748.46;107377;1260;69887;-41
2023/02/14 07:02:52;;;;;;;3.30;1.60;;;;;;;3.89;74.80;99751.77;107365;1257;73732;-41
2023/02/14 07:05:21;;;;;;;4.60;1.90;;;;;;;3.90;74.64;99752.66;107393;1260;60568;-41
2023/02/14 07:07:51;;;;;;;;;;;;;;;3.90;74.30;99748.23;107335;1256;60599;-41
2023/02/14 07:10:19;;;;;;;;;;;;;;;3.94;73.84;99750.83;107338;1257;75025;-41
2023/02/14 07:12:47;;;;;;;;;;;;;;;3.98;73.80;99753.34;107283;1257;69688;-41
2023/02/14 07:15:16;;;;;;;;;;;;;;;3.95;73.56;99760.42;107367;1257;73578;-41
2023/02/14 07:17:45;;;;;;;;;;;;;;;3.91;73.52;99762.23;107344;1256;60774;-41
2023/02/14 07:20:17;;;;;;;;;;;;;;;3.87;73.37;99762.20;107327;1258;61340;-41
2023/02/14 07:22:46;;;;;;;;;;;;;;;3.84;73.26;99764.55;107349;1257;75292;-41
2023/02/14 07:25:14;;;;;;;;;;;;;;;3.80;73.36;99761.69;107296;1257;69851;-41
2023/02/14 07:27:43;;;;;;;;;;;;;;;3.89;73.30;99755.85;107329;1257;73788;-41
2023/02/14 07:30:12;;;;;;;;;;;;;;;3.97;73.01;99752.64;107315;1259;60605;-41
2023/02/14 07:32:40;;;;;;;;;;;;;;;3.98;73.20;99756.15;107371;1256;61002;-41
2023/02/14 07:35:09;;;;;;;;;;;;;;;3.97;72.95;99747.81;107254;1257;75069;-41
2023/02/14 07:37:37;;;;;;;;;;;;;;;3.95;72.27;99749.00;107280;1257;69680;-41
2023/02/14 07:40:06;;;;;;;;;;;;;;;3.90;72.36;99743.27;107297;1257;73671;-41
2023/02/14 07:42:42;;;;;;;;;;;;;;;3.88;72.18;99735.55;107235;1259;60806;-41
2023/02/14 07:45:11;;;;;;;;;;;;;;;3.91;71.95;99732.66;107299;1258;61318;-41
2023/02/14 07:47:49;;;;;;;;;;;;;;;3.98;71.35;99733.27;107268;1257;75125;-41
2023/02/14 07:50:19;;;;;;;;;;;;;;;3.95;70.88;99730.64;107289;1258;69614;-41
2023/02/14 07:52:47;;;;;;;;;;;;;;;3.96;71.07;99735.63;107296;1258;72406;-41
2023/02/14 07:55:15;;;;;;;;;;;;;;;4.01;71.13;99740.04;107294;1256;60284;-41
2023/02/14 07:57:45;;;;;;;;;;;;;;;4.08;71.03;99739.40;107322;1259;60568;-41
2023/02/14 08:00:14;;;;;;;;;;;;;;;4.13;70.76;99741.02;107292;1258;74872;-41
2023/02/14 08:02:43;;;;;;;;;;;;;;;4.16;69.73;99738.74;107252;1260;69629;-40
2023/02/14 08:05:11;;;;;;;;;;;;;;;4.23;69.18;99736.42;107222;1258;74034;-41
2023/02/14 08:07:40;;;;;;;;;;;;;;;4.31;69.24;99734.18;107275;1260;60792;-41
2023/02/14 08:10:09;;;;;;;;;;;;;;;4.32;68.86;99727.86;107265;1256;61314;-41
2023/02/14 08:12:58;;;;;;;;;;;;;;;4.31;68.25;99727.14;107289;1256;74400;-41
2023/02/14 08:18:16;;;;;;;;;;;;;;;4.28;66.41;99732.52;107311;1257;72692;-41
2023/02/14 08:20:50;;;;;;;;;;;;;;;4.26;66.52;99733.08;107286;1257;60996;-40
2023/02/14 08:23:20;;;;;;;;;;;;;;;4.26;66.72;99728.80;105111;1260;1003557;-41
2023/02/14 08:25:48;;;;;;;;;;;;;;;4.28;67.06;99730.34;107781;1254;74739;-41
2023/02/14 08:28:17;;;;;;;;;;;;;;;4.33;67.14;99729.45;107701;1256;69166;-41
2023/02/14 08:30:46;;;;;;;;;;;;;;;4.44;66.82;99726.75;107682;1256;72989;-41
2023/02/14 08:33:14;;;;;;;;;;;;;;;4.48;66.22;99725.06;107700;1256;60772;-41
2023/02/14 08:35:42;;;;;;;;;;;;;;;4.46;65.82;99723.14;107548;1253;61102;-41
2023/02/14 08:38:11;;;;;;;;;;;;;;;4.44;65.43;99733.94;107599;1253;74074;-41
2023/02/14 08:40:42;;;;;;;;;;;;;;;4.42;65.25;99732.97;107561;1257;69960;-41
2023/02/14 08:43:11;;;;;;;;;;;;;;;4.39;65.35;99727.61;107345;1254;311562;-41
2023/02/14 08:47:44;;;;;;;5.80;2.00;;;;;;;4.43;65.77;99723.73;104105;1292;600913;-38
2023/02/14 08:50:15;;;;;;;5.50;1.50;;;;;;;4.46;65.77;99726.20;106584;1267;62248;-38
2023/02/14 08:52:43;;;;;;;3.00;1.30;;;;;;;4.57;65.27;99725.14;106609;1267;61525;-40
2023/02/14 08:55:12;;;;;;;5.50;1.60;;;;;;;4.68;64.41;99735.98;106632;1265;72990;-39
2023/02/14 08:57:41;;;;;;;3.70;1.50;;;;;;;4.73;63.38;99729.95;106648;1267;69796;-40
2023/02/14 09:00:11;;;;;;;3.70;1.90;;;;;;;4.75;62.81;99738.41;106498;1269;225471;-41
2023/02/14 09:02:42;;;;;;;4.90;1.60;;;;;;;4.82;62.97;99737.14;106735;1263;60189;-40
2023/02/14 09:05:10;;;;;;;5.00;1.80;;;;;;;4.94;63.12;99732.76;106787;1264;60780;-39
2023/02/14 09:07:40;;;;;;;3.90;1.50;;;;;;;5.09;62.80;99728.55;106760;1269;73375;-40
2023/02/14 09:10:09;;;;;;;6.10;2.30;;;;;;;5.18;62.81;99726.17;106859;1264;69923;-39
2023/02/14 09:12:40;;;;;;;5.20;1.70;;;;;;;5.22;62.44;99732.24;106856;1263;73869;-40
2023/02/14 09:15:09;;;;;;;7.40;1.90;;;;;;;5.22;61.41;99743.70;106819;1264;60776;-40
2023/02/14 09:17:37;;;;;;;7.50;1.80;;;;;;;5.21;60.96;99741.55;106889;1263;60295;-39
2023/02/14 09:20:08;;;;;;;5.10;1.60;;;;;;;5.15;60.72;99742.45;106821;1267;73861;-39
2023/02/14 09:22:36;;;;;;;4.10;1.60;;;;;;;5.10;60.76;99742.91;106878;1263;68600;-40
2023/02/14 09:25:05;;;;;;;5.00;1.50;;;;;;;5.09;61.21;99739.90;106855;1263;73659;-40
2023/02/14 09:27:35;;;;;;;5.60;1.90;;;;;;;5.11;61.11;99739.24;106847;1268;60474;-40
2023/02/14 09:30:08;;;;;;;4.20;1.90;;;;;;;5.18;61.61;99737.11;106807;1263;61529;-40
2023/02/14 09:32:38;;;;;;;4.30;1.60;;;;;;;5.20;61.38;99723.17;106741;1263;73449;-40
2023/02/14 09:35:07;;;;;;;4.30;1.60;;;;;;;5.41;60.79;99724.14;106043;1263;1003005;-40
2023/02/14 09:40:23;;;;;;;5.00;1.80;;;;;;;5.71;59.60;99715.98;106757;1264;59590;-40
2023/02/14 09:43:00;;;;;;;5.20;2.10;;;;;;;5.81;59.58;99719.27;106887;1263;61530;-40
2023/02/14 09:45:30;;;;;;;5.10;1.80;;;;;;;5.86;59.57;99723.71;106811;1264;73870;-40
2023/02/14 09:48:03;;;;;;;5.50;1.80;;;;;;;5.85;58.52;99714.45;106861;1264;68151;-40
2023/02/14 09:50:39;;;;;;;4.00;1.40;;;;;;;5.85;58.63;99716.27;106789;1264;72760;-40
2023/02/14 09:53:31;;;;;;;3.20;1.60;;;;;;;5.87;57.75;99719.58;106847;1267;60596;-40
2023/02/14 09:56:18;;;;;;;3.90;1.40;;;;;;;5.94;57.44;99718.88;106809;1264;61600;-40
2023/02/14 09:59:17;;;;;;;6.20;2.10;;;;;;;6.01;57.57;99722.72;107644;1252;72766;-40
2023/02/14 10:01:49;;;;;;;4.60;1.60;;;;;;;6.09;57.60;99726.38;107704;1256;69920;-40
2023/02/14 10:04:38;;;;;;;6.90;2.10;;;;;;;6.19;57.21;99727.52;107522;1254;73580;-40
2023/02/14 10:07:21;;;;;;;3.40;1.90;;;;;;;6.19;56.84;99722.16;107707;1253;59625;-40
2023/02/14 10:09:55;;;;;;;5.20;1.70;;;;;;;6.06;56.77;99726.12;107736;1254;61551;-40
2023/02/14 10:12:35;;;;;;;6.00;1.70;;;;;;;5.98;57.05;99722.64;107617;1254;74261;-40
2023/02/14 10:15:12;;;;;;;2.80;1.40;;;;;;;5.91;57.62;99722.16;107676;1254;69835;-39
2023/02/14 10:17:52;;;;;;;4.10;1.50;;;;;;;5.86;57.47;99724.41;106867;1254;1003030;-40
2023/02/14 10:20:23;;;;;;;;;;;;;;;5.91;55.44;99720.65;107698;1254;60755;-40
2023/02/14 10:23:33;;;;;;;5.30;1.80;;;;;;;5.88;55.37;99716.37;107694;1255;61088;-40
2023/02/14 10:26:04;;;;;;;4.40;1.40;;;;;;;5.72;56.00;99713.02;107698;1252;74332;-40
2023/02/14 10:28:34;;;;;;;5.70;2.20;;;;;;;5.73;56.48;99723.52;107617;1254;69612;-40
2023/02/14 10:31:26;;;;;;;3.80;1.90;;;;;;;5.71;57.00;99718.43;107581;1252;73887;-40
2023/02/14 10:33:58;;;;;;;4.10;2.20;;;;;;;5.77;57.51;99727.63;107601;1256;59577;-40
2023/02/14 10:36:33;;;;;;;4.90;1.80;;;;;;;5.79;57.10;99726.14;107571;1254;61772;-40
2023/02/14 10:39:17;;;;;;;4.70;2.10;;;;;;;5.79;56.98;99718.55;107556;1254;74301;-40
2023/02/14 10:42:09;;;;;;;4.10;1.80;;;;;;;5.79;57.23;99717.15;107679;1256;69925;-39
2023/02/14 10:45:11;;;;;;;5.90;1.80;;;;;;;5.87;56.70;99710.92;107663;1253;72834;-40
2023/02/14 10:47:56;;;;;;;4.40;1.60;;;;;;;6.11;55.78;99703.73;107236;1254;60778;-39
2023/02/14 10:50:35;;;;;;;3.20;1.60;;;;;;;6.39;55.10;99695.52;107583;1254;61341;-39
2023/02/14 10:53:28;;;;;;;3.90;1.40;;;;;;;6.64;54.31;99696.42;107416;1254;74106;-39
2023/02/14 10:56:00;;;;;;;3.90;1.90;;;;;;;6.94;53.27;99696.31;107672;1254;70004;-39
2023/02/14 11:19:26;;;;;;;4.50;1.80;;;;;;;9.11;47.24;99684.45;105042;1284;612291;-39
2023/02/14 11:21:56;;;;;;;3.00;1.50;;;;;;;9.21;46.86;99682.36;106418;1268;201152;-41
2023/02/14 11:24:25;;;;;;;4.90;1.50;;;;;;;8.93;45.68;99679.05;106652;1267;61262;-40
2023/02/14 11:26:58;;;;;;;5.00;1.80;;;;;;;8.62;45.75;99678.80;106667;1267;71134;-40
2023/02/14 11:29:28;;;;;;;8.20;1.70;;;;;;;8.33;46.51;99682.37;106669;1267;67762;-40
2023/02/14 11:31:56;;;;;;;3.20;1.50;;;;;;;8.13;47.63;99678.08;106721;1255;1003622;-40
2023/02/14 11:34:32;;;;;;;4.40;1.50;;;;;;;8.19;48.09;99673.65;107488;1257;60508;-40
2023/02/14 11:37:24;;;;;;;5.60;1.60;;;;;;;8.44;48.43;99666.16;107358;1253;61526;-40
2023/02/14 11:39:54;;;;;;;4.20;1.70;;;;;;;8.77;46.58;99663.58;107421;1254;73126;-40
2023/02/14 11:42:39;;;;;;;4.50;1.60;;;;;;;8.96;45.66;99654.02;107369;1254;68319;-40
2023/02/14 11:45:32;;;;;;;5.10;2.00;;;;;;;9.09;45.39;99658.14;107684;1254;73893;-41
2023/02/14 11:48:21;;;;;;;2.90;1.50;;;;;;;9.24;45.64;99669.84;107586;1254;60671;-41
2023/02/14 11:51:13;;;;;;;3.80;1.60;;;;;;;9.23;45.28;99671.58;107607;1254;61336;-41
2023/02/14 11:53:53;;;;;;;4.30;1.40;;;;;;;8.97;45.50;99667.81;107597;1254;74255;-41
2023/02/14 11:56:22;;;;;;;3.50;1.30;;;;;;;8.70;45.82;99665.38;107295;1254;68981;-41
2023/02/14 11:58:59;;;;;;;3.20;1.70;;;;;;;8.50;46.01;99664.05;107524;1254;73852;-41
2023/02/14 12:01:29;;;;;;;3.60;1.30;;;;;;;8.31;46.46;99673.84;107533;1255;60622;-41
2023/02/14 12:04:04;;;;;;;4.00;1.60;;;;;;;8.18;47.52;99670.64;107516;1254;61903;-41
2023/02/14 12:06:34;;;;;;;3.30;1.90;;;;;;;8.23;47.51;99670.16;107508;1254;74317;-41
2023/02/14 12:09:20;;;;;;;3.50;1.30;;;;;;;8.30;46.60;99666.33;107526;1255;70182;-41
2023/02/14 12:11:59;;;;;;;5.20;1.50;;;;;;;8.28;46.38;99667.33;107439;1254;73871;-40
2023/02/14 12:14:29;;;;;;;4.70;1.90;;;;;;;8.34;46.56;99672.86;107485;1254;60780;-40
2023/02/14 12:17:06;;;;;;;4.00;1.60;;;;;;;8.39;46.27;99670.39;107517;1254;61416;-41
2023/02/14 12:19:35;;;;;;;6.00;2.40;;;;;;;8.26;46.43;99655.02;107471;1254;72996;-40
2023/02/14 12:22:05;;;;;;;6.30;2.50;;;;;;;8.38;47.09;99670.91;107506;1254;70126;-40
2023/02/14 12:24:37;;;;;;;3.30;1.60;;;;;;;8.39;46.65;99667.02;107525;1254;73856;-40
2023/02/14 12:27:29;;;;;;;5.10;1.70;;;;;;;8.25;46.16;99670.70;107309;1254;60763;-40
2023/02/14 12:30:18;;;;;;;3.90;1.50;;;;;;;7.88;46.60;99671.07;107389;1255;60611;-41
2023/02/14 12:32:49;;;;;;;3.40;1.50;;;;;;;7.56;47.24;99669.41;107414;1253;73636;-40
2023/02/14 12:35:39;;;;;;;4.30;1.80;;;;;;;7.32;47.29;99668.45;107394;1255;69953;-40
2023/02/14 12:38:23;;;;;;;3.40;1.50;;;;;;;7.09;47.81;99665.45;107444;1254;73898;-40
2023/02/14 12:41:17;;;;;;;4.20;1.70;;;;;;;6.97;48.49;99665.55;107391;1253;60784;-41
2023/02/14 12:43:55;;;;;;;5.10;1.50;;;;;;;7.04;48.79;99660.89;107455;1257;61614;-40
2023/02/14 12:46:42;;;;;;;6.90;2.10;;;;;;;7.11;48.51;99662.20;107509;1254;71990;-40
2023/02/14 12:49:46;;;;;;;6.70;1.70;;;;;;;7.11;48.39;99657.52;107476;1254;69890;-41
2023/02/14 12:52:43;;;;;;;4.30;2.00;;;;;;;7.07;48.59;99666.67;107495;1254;73523;-40
2023/02/14 12:55:24;;;;;;;5.00;2.20;;;;;;;6.96;48.78;99669.83;107455;1254;60378;-40